sensor_id;sensor_type;location;lat;lon;timestamp;P1;durP1;ratioP1;P2;durP2;ratioP2
59062;SDS011;44851;45.648;9.004;2023-07-20T00:01:03;11.47;;;8.93;;
59062;SDS011;44851;45.648;9.004;2023-07-20T00:03:28;14.03;;;9.00;;
59062;SDS011;44851;45.648;9.004;2023-07-20T00:05:53;10.70;;;9.50;;
59062;SDS011;44851;45.648;9.004;2023-07-20T00:08:19;10.80;;;9.70;;
59062;SDS011;44851;45.648;9.004;2023-07-20T00:10:44;12.27;;;9.10;;
59062;SDS011;44851;45.648;9.004;2023-07-20T00:13:10;10.27;;;9.13;;
59062;SDS011;44851;45.648;9.004;2023-07-20T00:15:36;9.97;;;8.30;;
59062;SDS011;44851;45.648;9.004;2023-07-20T00:18:03;13.60;;;9.43;;
59062;SDS011;44851;45.648;9.004;2023-07-20T00:20:31;10.40;;;9.10;;
59062;SDS011;44851;45.648;9.004;2023-07-20T00:22:57;10.13;;;8.73;;
59062;SDS011;44851;45.648;9.004;2023-07-20T00:25:23;10.00;;;8.40;;
59062;SDS011;44851;45.648;9.004;2023-07-20T00:27:49;10.03;;;8.20;;
59062;SDS011;44851;45.648;9.004;2023-07-20T00:30:15;12.30;;;8.17;;
59062;SDS011;44851;45.648;9.004;2023-07-20T00:32:44;11.47;;;8.43;;
59062;SDS011;44851;45.648;9.004;2023-07-20T00:35:10;12.53;;;8.70;;
59062;SDS011;44851;45.648;9.004;2023-07-20T00:37:36;9.80;;;8.30;;
59062;SDS011;44851;45.648;9.004;2023-07-20T00:40:02;13.00;;;9.40;;
59062;SDS011;44851;45.648;9.004;2023-07-20T00:42:30;17.70;;;10.00;;
59062;SDS011;44851;45.648;9.004;2023-07-20T00:44:56;14.67;;;9.87;;
59062;SDS011;44851;45.648;9.004;2023-07-20T00:47:21;11.77;;;9.97;;
59062;SDS011;44851;45.648;9.004;2023-07-20T00:49:47;16.90;;;10.03;;
59062;SDS011;44851;45.648;9.004;2023-07-20T00:52:13;13.27;;;9.10;;
59062;SDS011;44851;45.648;9.004;2023-07-20T00:54:39;12.20;;;8.97;;
59062;SDS011;44851;45.648;9.004;2023-07-20T00:57:06;12.90;;;8.97;;
59062;SDS011;44851;45.648;9.004;2023-07-20T00:59:32;10.70;;;8.03;;
59062;SDS011;44851;45.648;9.004;2023-07-20T01:01:59;11.90;;;8.37;;
59062;SDS011;44851;45.648;9.004;2023-07-20T01:04:24;11.20;;;8.67;;
59062;SDS011;44851;45.648;9.004;2023-07-20T01:07:03;10.70;;;7.73;;
59062;SDS011;44851;45.648;9.004;2023-07-20T01:09:42;9.87;;;7.20;;
59062;SDS011;44851;45.648;9.004;2023-07-20T01:12:16;11.87;;;8.30;;
59062;SDS011;44851;45.648;9.004;2023-07-20T01:15:09;12.40;;;7.80;;
59062;SDS011;44851;45.648;9.004;2023-07-20T01:17:35;9.50;;;7.57;;
59062;SDS011;44851;45.648;9.004;2023-07-20T01:20:01;10.30;;;7.70;;
59062;SDS011;44851;45.648;9.004;2023-07-20T01:22:32;12.97;;;7.50;;
59062;SDS011;44851;45.648;9.004;2023-07-20T01:33:13;10.13;;;7.07;;
59062;SDS011;44851;45.648;9.004;2023-07-20T01:35:41;9.97;;;6.70;;
59062;SDS011;44851;45.648;9.004;2023-07-20T01:38:10;10.20;;;6.73;;
59062;SDS011;44851;45.648;9.004;2023-07-20T01:40:38;9.17;;;6.47;;
59062;SDS011;44851;45.648;9.004;2023-07-20T01:43:05;9.10;;;6.30;;
59062;SDS011;44851;45.648;9.004;2023-07-20T01:45:31;9.77;;;6.43;;
59062;SDS011;44851;45.648;9.004;2023-07-20T01:47:56;9.00;;;6.40;;
59062;SDS011;44851;45.648;9.004;2023-07-20T01:50:22;9.53;;;6.57;;
59062;SDS011;44851;45.648;9.004;2023-07-20T01:52:47;9.30;;;6.40;;
59062;SDS011;44851;45.648;9.004;2023-07-20T01:55:13;9.43;;;6.63;;
59062;SDS011;44851;45.648;9.004;2023-07-20T01:57:38;8.47;;;5.80;;
59062;SDS011;44851;45.648;9.004;2023-07-20T02:00:04;9.63;;;6.80;;
59062;SDS011;44851;45.648;9.004;2023-07-20T02:02:30;7.77;;;6.50;;
59062;SDS011;44851;45.648;9.004;2023-07-20T02:04:55;9.87;;;6.73;;
59062;SDS011;44851;45.648;9.004;2023-07-20T02:07:20;9.97;;;6.57;;
59062;SDS011;44851;45.648;9.004;2023-07-20T02:09:46;9.10;;;6.80;;
59062;SDS011;44851;45.648;9.004;2023-07-20T02:12:11;8.03;;;5.50;;
59062;SDS011;44851;45.648;9.004;2023-07-20T02:14:37;8.87;;;6.77;;
59062;SDS011;44851;45.648;9.004;2023-07-20T02:17:02;7.97;;;6.70;;
59062;SDS011;44851;45.648;9.004;2023-07-20T02:19:28;7.73;;;6.20;;
59062;SDS011;44851;45.648;9.004;2023-07-20T02:21:55;7.73;;;6.03;;
59062;SDS011;44851;45.648;9.004;2023-07-20T02:24:20;7.47;;;6.50;;
59062;SDS011;44851;45.648;9.004;2023-07-20T02:26:45;6.60;;;5.90;;
59062;SDS011;44851;45.648;9.004;2023-07-20T02:29:11;8.43;;;5.93;;
59062;SDS011;44851;45.648;9.004;2023-07-20T02:31:37;8.77;;;6.00;;
59062;SDS011;44851;45.648;9.004;2023-07-20T02:34:04;8.33;;;5.83;;
59062;SDS011;44851;45.648;9.004;2023-07-20T02:36:31;9.60;;;6.20;;
59062;SDS011;44851;45.648;9.004;2023-07-20T02:38:57;9.70;;;6.10;;
59062;SDS011;44851;45.648;9.004;2023-07-20T02:41:23;8.63;;;6.97;;
59062;SDS011;44851;45.648;9.004;2023-07-20T02:43:49;7.77;;;6.33;;
59062;SDS011;44851;45.648;9.004;2023-07-20T02:46:14;8.47;;;6.37;;
59062;SDS011;44851;45.648;9.004;2023-07-20T02:48:40;8.93;;;6.60;;
59062;SDS011;44851;45.648;9.004;2023-07-20T02:51:05;9.30;;;7.37;;
59062;SDS011;44851;45.648;9.004;2023-07-20T02:53:32;8.30;;;6.77;;
59062;SDS011;44851;45.648;9.004;2023-07-20T02:55:58;9.50;;;6.77;;
59062;SDS011;44851;45.648;9.004;2023-07-20T02:58:23;7.57;;;6.83;;
59062;SDS011;44851;45.648;9.004;2023-07-20T03:00:49;10.87;;;7.00;;
59062;SDS011;44851;45.648;9.004;2023-07-20T03:03:14;10.60;;;6.10;;
59062;SDS011;44851;45.648;9.004;2023-07-20T03:05:40;8.83;;;7.10;;
59062;SDS011;44851;45.648;9.004;2023-07-20T03:08:06;8.50;;;6.87;;
59062;SDS011;44851;45.648;9.004;2023-07-20T03:10:32;10.13;;;7.43;;
59062;SDS011;44851;45.648;9.004;2023-07-20T03:12:58;8.83;;;7.17;;
59062;SDS011;44851;45.648;9.004;2023-07-20T03:15:23;8.10;;;7.30;;
59062;SDS011;44851;45.648;9.004;2023-07-20T03:17:49;13.03;;;7.90;;
59062;SDS011;44851;45.648;9.004;2023-07-20T03:20:15;12.77;;;8.23;;
59062;SDS011;44851;45.648;9.004;2023-07-20T03:22:41;9.50;;;7.97;;
59062;SDS011;44851;45.648;9.004;2023-07-20T03:25:06;11.03;;;7.07;;
59062;SDS011;44851;45.648;9.004;2023-07-20T03:27:33;10.20;;;7.70;;
59062;SDS011;44851;45.648;9.004;2023-07-20T03:29:58;8.93;;;7.80;;
59062;SDS011;44851;45.648;9.004;2023-07-20T03:32:23;10.93;;;8.17;;
59062;SDS011;44851;45.648;9.004;2023-07-20T03:34:49;9.93;;;8.20;;
59062;SDS011;44851;45.648;9.004;2023-07-20T03:37:14;11.23;;;7.70;;
59062;SDS011;44851;45.648;9.004;2023-07-20T03:39:40;8.63;;;7.73;;
59062;SDS011;44851;45.648;9.004;2023-07-20T03:42:05;11.83;;;8.10;;
59062;SDS011;44851;45.648;9.004;2023-07-20T03:44:31;10.70;;;8.43;;
59062;SDS011;44851;45.648;9.004;2023-07-20T03:46:56;9.23;;;7.60;;
59062;SDS011;44851;45.648;9.004;2023-07-20T03:49:22;8.87;;;7.63;;
59062;SDS011;44851;45.648;9.004;2023-07-20T03:51:48;9.00;;;8.10;;
59062;SDS011;44851;45.648;9.004;2023-07-20T03:54:13;9.83;;;7.77;;
59062;SDS011;44851;45.648;9.004;2023-07-20T03:56:39;8.97;;;7.33;;
59062;SDS011;44851;45.648;9.004;2023-07-20T03:59:04;10.40;;;7.20;;
59062;SDS011;44851;45.648;9.004;2023-07-20T04:01:30;11.00;;;8.10;;
59062;SDS011;44851;45.648;9.004;2023-07-20T04:03:55;11.73;;;9.20;;
59062;SDS011;44851;45.648;9.004;2023-07-20T04:06:21;11.37;;;8.40;;
59062;SDS011;44851;45.648;9.004;2023-07-20T04:08:47;9.40;;;7.70;;
59062;SDS011;44851;45.648;9.004;2023-07-20T04:11:12;11.23;;;8.63;;
59062;SDS011;44851;45.648;9.004;2023-07-20T04:13:38;12.27;;;9.20;;
59062;SDS011;44851;45.648;9.004;2023-07-20T04:16:04;10.50;;;8.60;;
59062;SDS011;44851;45.648;9.004;2023-07-20T04:18:29;11.20;;;8.40;;
59062;SDS011;44851;45.648;9.004;2023-07-20T04:20:55;10.67;;;8.60;;
59062;SDS011;44851;45.648;9.004;2023-07-20T04:23:20;11.77;;;8.97;;
59062;SDS011;44851;45.648;9.004;2023-07-20T04:25:46;12.47;;;9.07;;
59062;SDS011;44851;45.648;9.004;2023-07-20T04:28:11;9.20;;;8.33;;
59062;SDS011;44851;45.648;9.004;2023-07-20T04:30:37;12.17;;;8.93;;
59062;SDS011;44851;45.648;9.004;2023-07-20T04:33:03;9.70;;;8.33;;
59062;SDS011;44851;45.648;9.004;2023-07-20T04:35:48;11.50;;;8.73;;
59062;SDS011;44851;45.648;9.004;2023-07-20T04:38:18;9.57;;;7.73;;
59062;SDS011;44851;45.648;9.004;2023-07-20T04:40:47;9.50;;;8.43;;
59062;SDS011;44851;45.648;9.004;2023-07-20T04:43:14;10.37;;;8.40;;
59062;SDS011;44851;45.648;9.004;2023-07-20T04:45:40;10.97;;;8.50;;
59062;SDS011;44851;45.648;9.004;2023-07-20T04:48:09;11.30;;;8.17;;
59062;SDS011;44851;45.648;9.004;2023-07-20T04:50:36;8.80;;;7.77;;
59062;SDS011;44851;45.648;9.004;2023-07-20T04:53:02;10.90;;;8.50;;
59062;SDS011;44851;45.648;9.004;2023-07-20T04:55:28;9.60;;;7.70;;
59062;SDS011;44851;45.648;9.004;2023-07-20T04:57:53;8.97;;;7.63;;
59062;SDS011;44851;45.648;9.004;2023-07-20T05:00:19;8.63;;;7.73;;
59062;SDS011;44851;45.648;9.004;2023-07-20T05:02:46;9.33;;;8.13;;
59062;SDS011;44851;45.648;9.004;2023-07-20T05:05:13;9.50;;;8.20;;
59062;SDS011;44851;45.648;9.004;2023-07-20T05:07:39;10.40;;;8.20;;
59062;SDS011;44851;45.648;9.004;2023-07-20T05:10:05;12.40;;;8.23;;
59062;SDS011;44851;45.648;9.004;2023-07-20T05:12:31;10.87;;;8.43;;
59062;SDS011;44851;45.648;9.004;2023-07-20T05:14:56;8.40;;;7.57;;
59062;SDS011;44851;45.648;9.004;2023-07-20T05:17:22;9.10;;;7.90;;
59062;SDS011;44851;45.648;9.004;2023-07-20T05:19:47;9.20;;;8.20;;
59062;SDS011;44851;45.648;9.004;2023-07-20T05:22:16;11.43;;;8.30;;
59062;SDS011;44851;45.648;9.004;2023-07-20T05:24:41;10.27;;;8.10;;
59062;SDS011;44851;45.648;9.004;2023-07-20T05:27:07;10.07;;;8.80;;
59062;SDS011;44851;45.648;9.004;2023-07-20T05:29:32;12.53;;;9.27;;
59062;SDS011;44851;45.648;9.004;2023-07-20T05:31:58;13.17;;;9.47;;
59062;SDS011;44851;45.648;9.004;2023-07-20T05:34:23;11.07;;;8.50;;
59062;SDS011;44851;45.648;9.004;2023-07-20T05:36:49;10.03;;;8.77;;
59062;SDS011;44851;45.648;9.004;2023-07-20T05:39:16;10.93;;;8.73;;
59062;SDS011;44851;45.648;9.004;2023-07-20T05:41:46;11.00;;;8.27;;
59062;SDS011;44851;45.648;9.004;2023-07-20T05:44:12;11.80;;;8.57;;
59062;SDS011;44851;45.648;9.004;2023-07-20T05:46:37;11.30;;;8.80;;
59062;SDS011;44851;45.648;9.004;2023-07-20T05:49:03;9.87;;;8.00;;
59062;SDS011;44851;45.648;9.004;2023-07-20T05:51:28;11.67;;;8.30;;
59062;SDS011;44851;45.648;9.004;2023-07-20T05:53:54;9.27;;;8.07;;
59062;SDS011;44851;45.648;9.004;2023-07-20T05:56:19;12.60;;;8.80;;
59062;SDS011;44851;45.648;9.004;2023-07-20T05:58:45;12.33;;;8.70;;
59062;SDS011;44851;45.648;9.004;2023-07-20T06:01:10;11.90;;;7.97;;
59062;SDS011;44851;45.648;9.004;2023-07-20T06:03:36;9.87;;;8.03;;
59062;SDS011;44851;45.648;9.004;2023-07-20T06:06:02;8.57;;;7.67;;
59062;SDS011;44851;45.648;9.004;2023-07-20T06:08:29;27.87;;;10.47;;
59062;SDS011;44851;45.648;9.004;2023-07-20T06:10:55;11.50;;;8.20;;
59062;SDS011;44851;45.648;9.004;2023-07-20T06:13:20;9.90;;;8.33;;
59062;SDS011;44851;45.648;9.004;2023-07-20T06:15:46;9.03;;;7.53;;
59062;SDS011;44851;45.648;9.004;2023-07-20T06:18:12;13.10;;;8.30;;
59062;SDS011;44851;45.648;9.004;2023-07-20T06:20:38;12.23;;;8.33;;
59062;SDS011;44851;45.648;9.004;2023-07-20T06:23:03;10.83;;;8.07;;
59062;SDS011;44851;45.648;9.004;2023-07-20T06:25:28;9.13;;;7.67;;
59062;SDS011;44851;45.648;9.004;2023-07-20T06:27:54;8.93;;;7.60;;
59062;SDS011;44851;45.648;9.004;2023-07-20T06:30:20;8.77;;;7.53;;
59062;SDS011;44851;45.648;9.004;2023-07-20T06:32:46;12.60;;;9.07;;
59062;SDS011;44851;45.648;9.004;2023-07-20T06:35:11;9.60;;;7.33;;
59062;SDS011;44851;45.648;9.004;2023-07-20T06:37:37;12.00;;;7.40;;
59062;SDS011;44851;45.648;9.004;2023-07-20T06:40:03;11.63;;;7.97;;
59062;SDS011;44851;45.648;9.004;2023-07-20T06:42:29;10.97;;;7.80;;
59062;SDS011;44851;45.648;9.004;2023-07-20T06:44:56;14.27;;;8.70;;
59062;SDS011;44851;45.648;9.004;2023-07-20T06:47:22;10.63;;;7.57;;
59062;SDS011;44851;45.648;9.004;2023-07-20T06:49:47;8.83;;;7.67;;
59062;SDS011;44851;45.648;9.004;2023-07-20T06:52:13;10.50;;;7.90;;
59062;SDS011;44851;45.648;9.004;2023-07-20T06:54:38;9.47;;;7.80;;
59062;SDS011;44851;45.648;9.004;2023-07-20T06:57:04;10.03;;;7.80;;
59062;SDS011;44851;45.648;9.004;2023-07-20T06:59:30;8.27;;;6.93;;
59062;SDS011;44851;45.648;9.004;2023-07-20T07:01:55;8.87;;;7.83;;
59062;SDS011;44851;45.648;9.004;2023-07-20T07:04:21;10.80;;;8.10;;
59062;SDS011;44851;45.648;9.004;2023-07-20T07:06:46;8.00;;;7.20;;
59062;SDS011;44851;45.648;9.004;2023-07-20T07:09:12;8.03;;;6.90;;
59062;SDS011;44851;45.648;9.004;2023-07-20T07:11:37;7.73;;;6.73;;
59062;SDS011;44851;45.648;9.004;2023-07-20T07:14:03;8.73;;;6.83;;
59062;SDS011;44851;45.648;9.004;2023-07-20T07:16:28;7.33;;;5.80;;
59062;SDS011;44851;45.648;9.004;2023-07-20T07:18:53;10.90;;;6.07;;
59062;SDS011;44851;45.648;9.004;2023-07-20T07:21:19;7.57;;;5.93;;
59062;SDS011;44851;45.648;9.004;2023-07-20T07:23:45;6.87;;;6.10;;
59062;SDS011;44851;45.648;9.004;2023-07-20T07:26:10;8.60;;;6.20;;
59062;SDS011;44851;45.648;9.004;2023-07-20T07:28:36;6.43;;;5.60;;
59062;SDS011;44851;45.648;9.004;2023-07-20T07:31:05;7.13;;;6.23;;
59062;SDS011;44851;45.648;9.004;2023-07-20T07:33:31;6.80;;;5.60;;
59062;SDS011;44851;45.648;9.004;2023-07-20T07:35:57;6.87;;;5.77;;
59062;SDS011;44851;45.648;9.004;2023-07-20T07:38:22;7.93;;;6.28;;
59062;SDS011;44851;45.648;9.004;2023-07-20T07:40:48;6.65;;;6.00;;
59062;SDS011;44851;45.648;9.004;2023-07-20T07:43:13;8.75;;;5.18;;
59062;SDS011;44851;45.648;9.004;2023-07-20T07:45:39;7.35;;;5.35;;
59062;SDS011;44851;45.648;9.004;2023-07-20T07:48:05;14.57;;;5.32;;
59062;SDS011;44851;45.648;9.004;2023-07-20T07:50:31;6.72;;;5.13;;
59062;SDS011;44851;45.648;9.004;2023-07-20T07:52:57;11.50;;;6.03;;
59062;SDS011;44851;45.648;9.004;2023-07-20T07:55:23;8.10;;;5.35;;
59062;SDS011;44851;45.648;9.004;2023-07-20T07:57:49;5.35;;;4.47;;
59062;SDS011;44851;45.648;9.004;2023-07-20T08:00:15;6.15;;;4.78;;
59062;SDS011;44851;45.648;9.004;2023-07-20T08:02:43;8.23;;;5.60;;
59062;SDS011;44851;45.648;9.004;2023-07-20T08:05:09;6.75;;;5.28;;
59062;SDS011;44851;45.648;9.004;2023-07-20T08:07:36;7.28;;;5.43;;
59062;SDS011;44851;45.648;9.004;2023-07-20T08:10:01;9.10;;;5.10;;
59062;SDS011;44851;45.648;9.004;2023-07-20T08:12:27;9.43;;;5.15;;
59062;SDS011;44851;45.648;9.004;2023-07-20T08:14:53;7.68;;;5.75;;
59062;SDS011;44851;45.648;9.004;2023-07-20T08:17:18;8.07;;;5.82;;
59062;SDS011;44851;45.648;9.004;2023-07-20T08:19:44;8.98;;;5.80;;
59062;SDS011;44851;45.648;9.004;2023-07-20T08:22:11;8.63;;;5.60;;
59062;SDS011;44851;45.648;9.004;2023-07-20T08:24:40;7.55;;;5.88;;
59062;SDS011;44851;45.648;9.004;2023-07-20T08:27:06;9.40;;;6.05;;
59062;SDS011;44851;45.648;9.004;2023-07-20T08:29:33;10.80;;;5.38;;
59062;SDS011;44851;45.648;9.004;2023-07-20T08:31:58;17.40;;;6.32;;
59062;SDS011;44851;45.648;9.004;2023-07-20T08:34:24;7.22;;;5.88;;
59062;SDS011;44851;45.648;9.004;2023-07-20T08:36:49;11.27;;;5.80;;
59062;SDS011;44851;45.648;9.004;2023-07-20T08:39:15;6.97;;;5.43;;
59062;SDS011;44851;45.648;9.004;2023-07-20T08:41:41;6.70;;;5.28;;
59062;SDS011;44851;45.648;9.004;2023-07-20T08:44:08;6.97;;;5.30;;
59062;SDS011;44851;45.648;9.004;2023-07-20T08:46:34;7.68;;;5.45;;
59062;SDS011;44851;45.648;9.004;2023-07-20T08:49:01;6.95;;;5.50;;
59062;SDS011;44851;45.648;9.004;2023-07-20T08:51:28;6.57;;;5.45;;
59062;SDS011;44851;45.648;9.004;2023-07-20T08:53:55;7.45;;;5.68;;
59062;SDS011;44851;45.648;9.004;2023-07-20T08:56:20;8.13;;;5.80;;
59062;SDS011;44851;45.648;9.004;2023-07-20T08:58:49;7.75;;;5.47;;
59062;SDS011;44851;45.648;9.004;2023-07-20T09:01:15;8.27;;;5.47;;
59062;SDS011;44851;45.648;9.004;2023-07-20T09:03:43;7.30;;;5.95;;
59062;SDS011;44851;45.648;9.004;2023-07-20T09:06:10;8.30;;;5.90;;
59062;SDS011;44851;45.648;9.004;2023-07-20T09:08:39;9.75;;;6.03;;
59062;SDS011;44851;45.648;9.004;2023-07-20T09:11:05;7.63;;;5.55;;
59062;SDS011;44851;45.648;9.004;2023-07-20T09:13:34;6.65;;;5.85;;
59062;SDS011;44851;45.648;9.004;2023-07-20T09:15:59;9.70;;;5.80;;
59062;SDS011;44851;45.648;9.004;2023-07-20T09:18:28;11.88;;;6.13;;
59062;SDS011;44851;45.648;9.004;2023-07-20T09:21:06;6.00;;;5.40;;
59062;SDS011;44851;45.648;9.004;2023-07-20T09:23:36;8.38;;;5.57;;
59062;SDS011;44851;45.648;9.004;2023-07-20T09:26:12;9.23;;;5.85;;
59062;SDS011;44851;45.648;9.004;2023-07-20T09:28:47;6.72;;;5.85;;
59062;SDS011;44851;45.648;9.004;2023-07-20T09:31:18;7.07;;;5.30;;
59062;SDS011;44851;45.648;9.004;2023-07-20T09:33:45;8.10;;;5.78;;
59062;SDS011;44851;45.648;9.004;2023-07-20T09:36:10;6.10;;;5.50;;
59062;SDS011;44851;45.648;9.004;2023-07-20T09:38:36;5.93;;;5.30;;
59062;SDS011;44851;45.648;9.004;2023-07-20T09:41:02;6.95;;;5.53;;
59062;SDS011;44851;45.648;9.004;2023-07-20T09:43:31;8.00;;;5.38;;
59062;SDS011;44851;45.648;9.004;2023-07-20T09:45:57;8.15;;;5.78;;
59062;SDS011;44851;45.648;9.004;2023-07-20T09:48:24;7.75;;;5.53;;
59062;SDS011;44851;45.648;9.004;2023-07-20T09:50:50;7.07;;;5.55;;
59062;SDS011;44851;45.648;9.004;2023-07-20T09:53:16;8.77;;;6.35;;
59062;SDS011;44851;45.648;9.004;2023-07-20T09:55:49;10.98;;;5.95;;
59062;SDS011;44851;45.648;9.004;2023-07-20T09:58:15;6.13;;;5.53;;
59062;SDS011;44851;45.648;9.004;2023-07-20T10:00:41;7.18;;;5.80;;
59062;SDS011;44851;45.648;9.004;2023-07-20T10:03:10;5.72;;;5.20;;
59062;SDS011;44851;45.648;9.004;2023-07-20T10:05:39;7.63;;;5.90;;
59062;SDS011;44851;45.648;9.004;2023-07-20T10:08:09;9.18;;;5.40;;
59062;SDS011;44851;45.648;9.004;2023-07-20T10:10:37;10.98;;;5.57;;
59062;SDS011;44851;45.648;9.004;2023-07-20T10:13:05;9.38;;;5.95;;
59062;SDS011;44851;45.648;9.004;2023-07-20T10:15:50;7.03;;;5.45;;
59062;SDS011;44851;45.648;9.004;2023-07-20T10:18:23;9.18;;;6.07;;
59062;SDS011;44851;45.648;9.004;2023-07-20T10:20:54;8.30;;;6.13;;
59062;SDS011;44851;45.648;9.004;2023-07-20T10:23:21;6.63;;;6.03;;
59062;SDS011;44851;45.648;9.004;2023-07-20T10:25:47;7.88;;;6.32;;
59062;SDS011;44851;45.648;9.004;2023-07-20T10:28:13;9.98;;;6.05;;
59062;SDS011;44851;45.648;9.004;2023-07-20T10:30:39;7.40;;;5.68;;
59062;SDS011;44851;45.648;9.004;2023-07-20T10:33:06;8.48;;;5.40;;
59062;SDS011;44851;45.648;9.004;2023-07-20T10:35:53;7.00;;;5.40;;
59062;SDS011;44851;45.648;9.004;2023-07-20T10:38:17;8.30;;;5.97;;
59062;SDS011;44851;45.648;9.004;2023-07-20T10:40:43;8.00;;;5.88;;
59062;SDS011;44851;45.648;9.004;2023-07-20T10:43:19;8.07;;;5.78;;
59062;SDS011;44851;45.648;9.004;2023-07-20T10:45:48;8.85;;;5.80;;
59062;SDS011;44851;45.648;9.004;2023-07-20T10:53:34;7.15;;;5.68;;
59062;SDS011;44851;45.648;9.004;2023-07-20T10:56:06;6.22;;;4.93;;
59062;SDS011;44851;45.648;9.004;2023-07-20T10:58:57;8.05;;;6.05;;
59062;SDS011;44851;45.648;9.004;2023-07-20T11:01:27;7.75;;;5.75;;
59062;SDS011;44851;45.648;9.004;2023-07-20T11:03:57;8.27;;;5.75;;
59062;SDS011;44851;45.648;9.004;2023-07-20T11:11:22;5.35;;;4.85;;
59062;SDS011;44851;45.648;9.004;2023-07-20T11:16:34;7.63;;;5.28;;
59062;SDS011;44851;45.648;9.004;2023-07-20T11:19:02;7.28;;;5.25;;
59062;SDS011;44851;45.648;9.004;2023-07-20T11:21:29;7.82;;;5.80;;
59062;SDS011;44851;45.648;9.004;2023-07-20T11:24:02;6.68;;;5.13;;
59062;SDS011;44851;45.648;9.004;2023-07-20T11:26:28;5.90;;;5.38;;
59062;SDS011;44851;45.648;9.004;2023-07-20T11:28:53;8.32;;;6.07;;
59062;SDS011;44851;45.648;9.004;2023-07-20T11:31:19;6.13;;;5.13;;
59062;SDS011;44851;45.648;9.004;2023-07-20T11:33:44;6.72;;;5.00;;
59062;SDS011;44851;45.648;9.004;2023-07-20T11:36:10;7.68;;;5.22;;
59062;SDS011;44851;45.648;9.004;2023-07-20T11:38:36;6.00;;;5.40;;
59062;SDS011;44851;45.648;9.004;2023-07-20T11:41:05;6.45;;;5.78;;
59062;SDS011;44851;45.648;9.004;2023-07-20T11:43:30;9.93;;;5.78;;
59062;SDS011;44851;45.648;9.004;2023-07-20T11:45:56;8.95;;;5.63;;
59062;SDS011;44851;45.648;9.004;2023-07-20T11:48:21;6.25;;;5.32;;
59062;SDS011;44851;45.648;9.004;2023-07-20T11:50:47;7.53;;;4.82;;
59062;SDS011;44851;45.648;9.004;2023-07-20T11:53:13;6.85;;;5.90;;
59062;SDS011;44851;45.648;9.004;2023-07-20T11:55:39;7.70;;;5.32;;
59062;SDS011;44851;45.648;9.004;2023-07-20T11:58:06;6.88;;;5.85;;
59062;SDS011;44851;45.648;9.004;2023-07-20T12:00:32;7.45;;;5.60;;
59062;SDS011;44851;45.648;9.004;2023-07-20T12:02:59;6.68;;;5.90;;
59062;SDS011;44851;45.648;9.004;2023-07-20T12:05:25;9.43;;;5.88;;
59062;SDS011;44851;45.648;9.004;2023-07-20T12:07:51;5.55;;;4.97;;
59062;SDS011;44851;45.648;9.004;2023-07-20T12:10:22;8.05;;;5.47;;
59062;SDS011;44851;45.648;9.004;2023-07-20T12:12:49;8.05;;;5.90;;
59062;SDS011;44851;45.648;9.004;2023-07-20T12:15:26;6.30;;;5.32;;
59062;SDS011;44851;45.648;9.004;2023-07-20T12:17:55;6.93;;;5.47;;
59062;SDS011;44851;45.648;9.004;2023-07-20T12:20:27;10.98;;;5.57;;
59062;SDS011;44851;45.648;9.004;2023-07-20T12:22:55;5.97;;;5.18;;
59062;SDS011;44851;45.648;9.004;2023-07-20T12:25:22;7.47;;;5.55;;
59062;SDS011;44851;45.648;9.004;2023-07-20T12:27:48;6.63;;;5.50;;
59062;SDS011;44851;45.648;9.004;2023-07-20T12:30:14;7.03;;;4.95;;
59062;SDS011;44851;45.648;9.004;2023-07-20T12:32:39;10.05;;;5.60;;
59062;SDS011;44851;45.648;9.004;2023-07-20T12:35:05;6.85;;;5.75;;
59062;SDS011;44851;45.648;9.004;2023-07-20T12:37:31;6.82;;;4.93;;
59062;SDS011;44851;45.648;9.004;2023-07-20T12:39:56;7.97;;;5.93;;
59062;SDS011;44851;45.648;9.004;2023-07-20T12:42:22;7.43;;;5.78;;
59062;SDS011;44851;45.648;9.004;2023-07-20T12:44:48;6.20;;;5.30;;
59062;SDS011;44851;45.648;9.004;2023-07-20T12:47:15;7.00;;;5.38;;
59062;SDS011;44851;45.648;9.004;2023-07-20T12:49:42;10.00;;;5.85;;
59062;SDS011;44851;45.648;9.004;2023-07-20T12:52:10;6.60;;;5.97;;
59062;SDS011;44851;45.648;9.004;2023-07-20T12:54:36;8.18;;;5.68;;
59062;SDS011;44851;45.648;9.004;2023-07-20T12:57:01;7.35;;;5.65;;
59062;SDS011;44851;45.648;9.004;2023-07-20T12:59:28;7.60;;;6.03;;
59062;SDS011;44851;45.648;9.004;2023-07-20T13:01:53;7.20;;;5.35;;
59062;SDS011;44851;45.648;9.004;2023-07-20T13:04:19;6.68;;;5.72;;
59062;SDS011;44851;45.648;9.004;2023-07-20T13:06:44;6.32;;;5.68;;
59062;SDS011;44851;45.648;9.004;2023-07-20T13:09:09;11.23;;;6.00;;
59062;SDS011;44851;45.648;9.004;2023-07-20T13:11:35;6.60;;;5.80;;
59062;SDS011;44851;45.648;9.004;2023-07-20T13:14:01;8.55;;;5.30;;
59062;SDS011;44851;45.648;9.004;2023-07-20T13:16:26;8.05;;;5.57;;
59062;SDS011;44851;45.648;9.004;2023-07-20T13:18:52;7.03;;;5.13;;
59062;SDS011;44851;45.648;9.004;2023-07-20T13:21:18;7.15;;;5.90;;
59062;SDS011;44851;45.648;9.004;2023-07-20T13:23:47;7.82;;;5.75;;
59062;SDS011;44851;45.648;9.004;2023-07-20T13:26:13;7.38;;;5.43;;
59062;SDS011;44851;45.648;9.004;2023-07-20T13:28:39;5.80;;;5.20;;
59062;SDS011;44851;45.648;9.004;2023-07-20T13:31:04;8.43;;;5.57;;
59062;SDS011;44851;45.648;9.004;2023-07-20T13:33:30;7.13;;;5.82;;
59062;SDS011;44851;45.648;9.004;2023-07-20T13:35:55;7.72;;;5.50;;
59062;SDS011;44851;45.648;9.004;2023-07-20T13:38:20;5.90;;;5.25;;
59062;SDS011;44851;45.648;9.004;2023-07-20T13:40:46;7.03;;;5.45;;
59062;SDS011;44851;45.648;9.004;2023-07-20T13:43:11;8.40;;;5.90;;
59062;SDS011;44851;45.648;9.004;2023-07-20T13:45:37;8.40;;;5.65;;
59062;SDS011;44851;45.648;9.004;2023-07-20T13:48:02;7.53;;;5.80;;
59062;SDS011;44851;45.648;9.004;2023-07-20T13:50:28;5.82;;;5.22;;
59062;SDS011;44851;45.648;9.004;2023-07-20T13:52:53;10.20;;;6.00;;
59062;SDS011;44851;45.648;9.004;2023-07-20T13:55:19;8.07;;;5.57;;
59062;SDS011;44851;45.648;9.004;2023-07-20T13:57:44;8.10;;;6.18;;
59062;SDS011;44851;45.648;9.004;2023-07-20T14:00:10;7.15;;;6.07;;
59062;SDS011;44851;45.648;9.004;2023-07-20T14:02:36;7.57;;;6.18;;
59062;SDS011;44851;45.648;9.004;2023-07-20T14:05:02;8.18;;;5.70;;
59062;SDS011;44851;45.648;9.004;2023-07-20T14:07:27;9.48;;;6.03;;
59062;SDS011;44851;45.648;9.004;2023-07-20T14:09:53;11.23;;;6.43;;
59062;SDS011;44851;45.648;9.004;2023-07-20T14:12:18;8.25;;;5.70;;
59062;SDS011;44851;45.648;9.004;2023-07-20T14:14:44;7.18;;;5.80;;
59062;SDS011;44851;45.648;9.004;2023-07-20T14:17:10;6.18;;;5.55;;
59062;SDS011;44851;45.648;9.004;2023-07-20T14:19:37;9.95;;;6.30;;
59062;SDS011;44851;45.648;9.004;2023-07-20T14:22:02;8.82;;;5.97;;
59062;SDS011;44851;45.648;9.004;2023-07-20T14:24:28;9.15;;;5.35;;
59062;SDS011;44851;45.648;9.004;2023-07-20T14:26:54;8.55;;;6.15;;
59062;SDS011;44851;45.648;9.004;2023-07-20T14:29:20;7.78;;;5.43;;
59062;SDS011;44851;45.648;9.004;2023-07-20T14:31:46;7.75;;;5.75;;
59062;SDS011;44851;45.648;9.004;2023-07-20T14:34:15;6.22;;;5.65;;
59062;SDS011;44851;45.648;9.004;2023-07-20T14:36:42;9.57;;;6.07;;
59062;SDS011;44851;45.648;9.004;2023-07-20T14:39:08;6.50;;;5.65;;
59062;SDS011;44851;45.648;9.004;2023-07-20T14:41:33;8.73;;;5.93;;
59062;SDS011;44851;45.648;9.004;2023-07-20T14:43:59;8.80;;;5.95;;
59062;SDS011;44851;45.648;9.004;2023-07-20T14:46:24;7.40;;;5.75;;
59062;SDS011;44851;45.648;9.004;2023-07-20T14:48:49;8.45;;;5.78;;
59062;SDS011;44851;45.648;9.004;2023-07-20T14:51:16;7.43;;;5.90;;
59062;SDS011;44851;45.648;9.004;2023-07-20T14:53:42;10.45;;;6.10;;
59062;SDS011;44851;45.648;9.004;2023-07-20T14:56:07;10.63;;;6.38;;
59062;SDS011;44851;45.648;9.004;2023-07-20T14:58:34;8.43;;;6.47;;
59062;SDS011;44851;45.648;9.004;2023-07-20T15:00:59;8.07;;;5.93;;